sensor_id;sensor_type;location;lat;lon;timestamp;pressure;altitude;pressure_sealevel;temperature;humidity
37648;BME280;23490;53.656;10.076;2023-07-13T00:02:15;98104.78;;;-145.95;100.00
37648;BME280;23490;53.656;10.076;2023-07-13T00:04:40;98174.97;;;-145.95;100.00
37648;BME280;23490;53.656;10.076;2023-07-13T00:07:07;98199.75;;;-145.95;100.00
37648;BME280;23490;53.656;10.076;2023-07-13T00:09:32;98181.16;;;-145.95;100.00
37648;BME280;23490;53.656;10.076;2023-07-13T00:11:58;98170.84;;;-145.95;100.00
37648;BME280;23490;53.656;10.076;2023-07-13T00:14:25;98174.97;;;-145.95;100.00
37648;BME280;23490;53.656;10.076;2023-07-13T00:16:50;98226.59;;;-145.95;100.00
37648;BME280;23490;53.656;10.076;2023-07-13T00:19:16;98216.25;;;-145.95;100.00
37648;BME280;23490;53.656;10.076;2023-07-13T00:21:42;98243.09;;;-145.95;100.00
37648;BME280;23490;53.656;10.076;2023-07-13T00:24:11;98269.94;;;-145.95;100.00
37648;BME280;23490;53.656;10.076;2023-07-13T00:26:38;98245.16;;;-145.95;100.00
37648;BME280;23490;53.656;10.076;2023-07-13T00:29:04;98212.13;;;-145.95;100.00
37648;BME280;23490;53.656;10.076;2023-07-13T00:31:31;98236.91;;;-145.95;100.00
37648;BME280;23490;53.656;10.076;2023-07-13T00:33:56;98245.16;;;-145.95;100.00
37648;BME280;23490;53.656;10.076;2023-07-13T00:36:22;98203.88;;;-145.95;100.00
37648;BME280;23490;53.656;10.076;2023-07-13T00:38:47;98230.72;;;-145.95;100.00
37648;BME280;23490;53.656;10.076;2023-07-13T00:41:13;98236.91;;;-145.95;100.00
37648;BME280;23490;53.656;10.076;2023-07-13T00:43:38;98282.31;;;-145.95;100.00
37648;BME280;23490;53.656;10.076;2023-07-13T00:46:26;98253.44;;;-145.95;100.00
37648;BME280;23490;53.656;10.076;2023-07-13T00:48:53;98257.56;;;-145.95;100.00
37648;BME280;23490;53.656;10.076;2023-07-13T00:51:31;98272.00;;;-145.95;100.00
37648;BME280;23490;53.656;10.076;2023-07-13T00:53:59;98265.81;;;-145.95;100.00
37648;BME280;23490;53.656;10.076;2023-07-13T00:56:26;98286.47;;;-145.95;100.00
37648;BME280;23490;53.656;10.076;2023-07-13T00:58:52;98257.56;;;-145.95;100.00
37648;BME280;23490;53.656;10.076;2023-07-13T01:01:18;98259.63;;;-145.95;100.00
37648;BME280;23490;53.656;10.076;2023-07-13T01:03:44;98284.38;;;-145.95;100.00
37648;BME280;23490;53.656;10.076;2023-07-13T01:06:10;98282.31;;;-145.95;100.00
37648;BME280;23490;53.656;10.076;2023-07-13T01:08:36;98317.44;;;-145.95;100.00
37648;BME280;23490;53.656;10.076;2023-07-13T01:11:01;98249.28;;;-145.95;100.00
37648;BME280;23490;53.656;10.076;2023-07-13T01:13:26;98265.81;;;-145.95;100.00
37648;BME280;23490;53.656;10.076;2023-07-13T01:15:53;98298.84;;;-145.95;100.00
37648;BME280;23490;53.656;10.076;2023-07-13T01:18:20;98315.38;;;-145.95;100.00
37648;BME280;23490;53.656;10.076;2023-07-13T01:20:57;98282.31;;;-145.95;100.00
37648;BME280;23490;53.656;10.076;2023-07-13T01:23:24;98302.97;;;-145.95;100.00
37648;BME280;23490;53.656;10.076;2023-07-13T01:25:52;98274.06;;;-145.95;100.00
37648;BME280;23490;53.656;10.076;2023-07-13T01:28:18;98278.19;;;-145.95;100.00
37648;BME280;23490;53.656;10.076;2023-07-13T01:30:45;98294.72;;;-145.95;100.00
37648;BME280;23490;53.656;10.076;2023-07-13T01:33:16;98302.97;;;-145.95;100.00
37648;BME280;23490;53.656;10.076;2023-07-13T01:35:43;98302.97;;;-145.95;100.00
37648;BME280;23490;53.656;10.076;2023-07-13T01:38:09;98276.13;;;-145.95;100.00
37648;BME280;23490;53.656;10.076;2023-07-13T01:40:36;98325.69;;;-145.95;100.00
37648;BME280;23490;53.656;10.076;2023-07-13T01:43:02;98327.75;;;-145.95;100.00
37648;BME280;23490;53.656;10.076;2023-07-13T01:45:28;98290.59;;;-145.95;100.00
37648;BME280;23490;53.656;10.076;2023-07-13T01:47:53;98282.31;;;-145.95;100.00
37648;BME280;23490;53.656;10.076;2023-07-13T01:50:18;98300.91;;;-145.95;100.00
37648;BME280;23490;53.656;10.076;2023-07-13T01:52:44;98294.72;;;-145.95;100.00
37648;BME280;23490;53.656;10.076;2023-07-13T01:55:09;98286.47;;;-145.95;100.00
37648;BME280;23490;53.656;10.076;2023-07-13T01:57:34;98331.88;;;-145.95;100.00
37648;BME280;23490;53.656;10.076;2023-07-13T02:00:03;98305.03;;;-145.95;100.00
37648;BME280;23490;53.656;10.076;2023-07-13T02:02:30;98296.78;;;-145.95;100.00
37648;BME280;23490;53.656;10.076;2023-07-13T02:04:55;98346.31;;;-145.95;100.00
37648;BME280;23490;53.656;10.076;2023-07-13T02:07:21;98307.09;;;-145.95;100.00
37648;BME280;23490;53.656;10.076;2023-07-13T02:09:46;98414.47;;;-145.95;100.00
37648;BME280;23490;53.656;10.076;2023-07-13T02:12:12;98327.75;;;-145.95;100.00
37648;BME280;23490;53.656;10.076;2023-07-13T02:14:37;98315.38;;;-145.95;100.00
37648;BME280;23490;53.656;10.076;2023-07-13T02:17:03;98362.84;;;-145.95;100.00
37648;BME280;23490;53.656;10.076;2023-07-13T02:19:29;98331.88;;;-145.95;100.00
37648;BME280;23490;53.656;10.076;2023-07-13T02:21:54;98344.25;;;-145.95;100.00
37648;BME280;23490;53.656;10.076;2023-07-13T02:24:19;98307.09;;;-145.95;100.00
37648;BME280;23490;53.656;10.076;2023-07-13T02:26:46;98329.81;;;-145.95;100.00
37648;BME280;23490;53.656;10.076;2023-07-13T02:29:11;98342.19;;;-145.95;100.00
37648;BME280;23490;53.656;10.076;2023-07-13T02:31:37;98292.66;;;-145.95;100.00
37648;BME280;23490;53.656;10.076;2023-07-13T02:34:03;98317.44;;;-145.95;100.00
37648;BME280;23490;53.656;10.076;2023-07-13T02:36:29;98340.13;;;-145.95;100.00
37648;BME280;23490;53.656;10.076;2023-07-13T02:38:55;98393.81;;;-145.95;100.00
37648;BME280;23490;53.656;10.076;2023-07-13T02:41:20;98311.22;;;-145.95;100.00
37648;BME280;23490;53.656;10.076;2023-07-13T02:43:46;98356.66;;;-145.95;100.00
37648;BME280;23490;53.656;10.076;2023-07-13T02:46:11;98307.09;;;-145.95;100.00
37648;BME280;23490;53.656;10.076;2023-07-13T02:48:38;98344.25;;;-145.95;100.00
37648;BME280;23490;53.656;10.076;2023-07-13T02:51:04;98383.50;;;-145.95;100.00
37648;BME280;23490;53.656;10.076;2023-07-13T02:53:29;98360.78;;;-145.95;100.00
37648;BME280;23490;53.656;10.076;2023-07-13T02:55:54;98352.53;;;-145.95;100.00
37648;BME280;23490;53.656;10.076;2023-07-13T02:58:20;98393.81;;;-145.95;100.00
37648;BME280;23490;53.656;10.076;2023-07-13T03:00:47;98344.25;;;-145.95;100.00
37648;BME280;23490;53.656;10.076;2023-07-13T03:03:13;98350.47;;;-145.95;100.00
37648;BME280;23490;53.656;10.076;2023-07-13T03:05:41;98344.25;;;-145.95;100.00
37648;BME280;23490;53.656;10.076;2023-07-13T03:08:07;98336.00;;;-145.95;100.00
37648;BME280;23490;53.656;10.076;2023-07-13T03:10:33;98369.03;;;-145.95;100.00
37648;BME280;23490;53.656;10.076;2023-07-13T03:12:58;98352.53;;;-145.95;100.00
37648;BME280;23490;53.656;10.076;2023-07-13T03:15:24;98381.44;;;-145.95;100.00
37648;BME280;23490;53.656;10.076;2023-07-13T03:17:49;98391.75;;;-145.95;100.00
37648;BME280;23490;53.656;10.076;2023-07-13T03:20:15;98366.97;;;-145.95;100.00
37648;BME280;23490;53.656;10.076;2023-07-13T03:22:40;98354.59;;;-145.95;100.00
37648;BME280;23490;53.656;10.076;2023-07-13T03:25:07;98342.19;;;-145.95;100.00
37648;BME280;23490;53.656;10.076;2023-07-13T03:27:32;98313.28;;;-145.95;100.00
37648;BME280;23490;53.656;10.076;2023-07-13T03:29:57;98319.50;;;-145.95;100.00
37648;BME280;23490;53.656;10.076;2023-07-13T03:32:23;98344.25;;;-145.95;100.00
37648;BME280;23490;53.656;10.076;2023-07-13T03:34:48;98358.72;;;-145.95;100.00
37648;BME280;23490;53.656;10.076;2023-07-13T03:37:14;98298.84;;;-145.95;100.00
37648;BME280;23490;53.656;10.076;2023-07-13T03:39:39;98369.03;;;-145.95;100.00
37648;BME280;23490;53.656;10.076;2023-07-13T03:42:05;98358.72;;;-145.95;100.00
37648;BME280;23490;53.656;10.076;2023-07-13T03:44:30;98340.13;;;-145.95;100.00
37648;BME280;23490;53.656;10.076;2023-07-13T03:46:56;98387.63;;;-145.95;100.00
37648;BME280;23490;53.656;10.076;2023-07-13T03:49:21;98331.88;;;-145.95;100.00
37648;BME280;23490;53.656;10.076;2023-07-13T03:51:46;98364.91;;;-145.95;100.00
37648;BME280;23490;53.656;10.076;2023-07-13T03:54:12;98356.66;;;-145.95;100.00
37648;BME280;23490;53.656;10.076;2023-07-13T03:56:37;98356.66;;;-145.95;100.00
37648;BME280;23490;53.656;10.076;2023-07-13T03:59:02;98344.25;;;-145.95;100.00
37648;BME280;23490;53.656;10.076;2023-07-13T04:01:28;98389.69;;;-145.95;100.00
37648;BME280;23490;53.656;10.076;2023-07-13T04:03:53;98414.47;;;-145.95;100.00
37648;BME280;23490;53.656;10.076;2023-07-13T04:06:25;98327.75;;;-145.95;100.00
37648;BME280;23490;53.656;10.076;2023-07-13T04:08:54;98344.25;;;-145.95;100.00
37648;BME280;23490;53.656;10.076;2023-07-13T04:11:22;98393.81;;;-145.95;100.00
37648;BME280;23490;53.656;10.076;2023-07-13T04:13:48;98327.75;;;-145.95;100.00
37648;BME280;23490;53.656;10.076;2023-07-13T04:16:14;98352.53;;;-145.95;100.00
37648;BME280;23490;53.656;10.076;2023-07-13T04:18:41;98340.13;;;-145.95;100.00
37648;BME280;23490;53.656;10.076;2023-07-13T04:21:07;98358.72;;;-145.95;100.00
37648;BME280;23490;53.656;10.076;2023-07-13T04:23:33;98331.88;;;-145.95;100.00
37648;BME280;23490;53.656;10.076;2023-07-13T04:25:58;98327.75;;;-145.95;100.00
37648;BME280;23490;53.656;10.076;2023-07-13T04:28:25;98373.16;;;-145.95;100.00
37648;BME280;23490;53.656;10.076;2023-07-13T04:30:50;98323.63;;;-145.95;100.00
37648;BME280;23490;53.656;10.076;2023-07-13T04:33:16;98315.38;;;-145.95;100.00
37648;BME280;23490;53.656;10.076;2023-07-13T04:35:43;98340.13;;;-145.95;100.00
37648;BME280;23490;53.656;10.076;2023-07-13T04:38:09;98338.06;;;-145.95;100.00
37648;BME280;23490;53.656;10.076;2023-07-13T04:40:37;98331.88;;;-145.95;100.00
37648;BME280;23490;53.656;10.076;2023-07-13T04:43:02;98319.50;;;-145.95;100.00
37648;BME280;23490;53.656;10.076;2023-07-13T04:45:28;98323.63;;;-145.95;100.00
37648;BME280;23490;53.656;10.076;2023-07-13T04:47:53;98311.22;;;-145.95;100.00
37648;BME280;23490;53.656;10.076;2023-07-13T04:50:18;98340.13;;;-145.95;100.00
37648;BME280;23490;53.656;10.076;2023-07-13T04:52:48;98331.88;;;-145.95;100.00
37648;BME280;23490;53.656;10.076;2023-07-13T04:55:14;98298.84;;;-145.95;100.00
37648;BME280;23490;53.656;10.076;2023-07-13T04:57:40;98315.38;;;-145.95;100.00
37648;BME280;23490;53.656;10.076;2023-07-13T05:00:06;98294.72;;;-145.95;100.00
37648;BME280;23490;53.656;10.076;2023-07-13T05:02:33;98298.84;;;-145.95;100.00
37648;BME280;23490;53.656;10.076;2023-07-13T05:04:59;98298.84;;;-145.95;100.00
37648;BME280;23490;53.656;10.076;2023-07-13T05:07:25;98274.06;;;-145.95;100.00
37648;BME280;23490;53.656;10.076;2023-07-13T05:09:51;98307.09;;;-145.95;100.00
37648;BME280;23490;53.656;10.076;2023-07-13T05:12:16;98265.81;;;-145.95;100.00
37648;BME280;23490;53.656;10.076;2023-07-13T05:14:42;98348.38;;;-145.95;100.00
37648;BME280;23490;53.656;10.076;2023-07-13T05:17:07;98265.81;;;-145.95;100.00
37648;BME280;23490;53.656;10.076;2023-07-13T05:19:32;98243.09;;;-145.95;100.00
37648;BME280;23490;53.656;10.076;2023-07-13T05:21:58;98245.16;;;-145.95;100.00
37648;BME280;23490;53.656;10.076;2023-07-13T05:24:23;98212.13;;;-145.95;100.00
37648;BME280;23490;53.656;10.076;2023-07-13T05:26:48;98208.00;;;-145.95;100.00
37648;BME280;23490;53.656;10.076;2023-07-13T05:29:14;98158.47;;;-145.95;100.00
37648;BME280;23490;53.656;10.076;2023-07-13T05:31:39;98166.72;;;-145.95;100.00
37648;BME280;23490;53.656;10.076;2023-07-13T05:34:04;98148.13;;;-145.95;100.00
37648;BME280;23490;53.656;10.076;2023-07-13T05:36:30;98071.75;;;-145.95;100.00
37648;BME280;23490;53.656;10.076;2023-07-13T05:38:56;98150.19;;;-145.95;100.00
37648;BME280;23490;53.656;10.076;2023-07-13T05:41:21;98141.94;;;-145.95;100.00
37648;BME280;23490;53.656;10.076;2023-07-13T05:43:47;98139.88;;;-145.95;100.00
37648;BME280;23490;53.656;10.076;2023-07-13T05:46:12;98119.22;;;-145.95;100.00
37648;BME280;23490;53.656;10.076;2023-07-13T05:48:37;98108.91;;;-145.95;100.00
37648;BME280;23490;53.656;10.076;2023-07-13T05:51:03;98158.47;;;-145.95;100.00
37648;BME280;23490;53.656;10.076;2023-07-13T05:53:28;98104.78;;;-145.95;100.00
37648;BME280;23490;53.656;10.076;2023-07-13T05:55:55;98119.22;;;-145.95;100.00
37648;BME280;23490;53.656;10.076;2023-07-13T05:58:21;98117.16;;;-145.95;100.00
37648;BME280;23490;53.656;10.076;2023-07-13T06:00:47;98119.22;;;-145.95;100.00
37648;BME280;23490;53.656;10.076;2023-07-13T06:03:14;98092.41;;;-145.95;100.00
37648;BME280;23490;53.656;10.076;2023-07-13T06:05:39;98104.78;;;-145.95;100.00
37648;BME280;23490;53.656;10.076;2023-07-13T06:08:06;98137.81;;;-145.95;100.00
37648;BME280;23490;53.656;10.076;2023-07-13T06:10:33;98075.88;;;-145.95;100.00
37648;BME280;23490;53.656;10.076;2023-07-13T06:12:58;98121.28;;;-145.95;100.00
37648;BME280;23490;53.656;10.076;2023-07-13T06:15:24;98119.22;;;-145.95;100.00
37648;BME280;23490;53.656;10.076;2023-07-13T06:17:49;98088.25;;;-145.95;100.00
37648;BME280;23490;53.656;10.076;2023-07-13T06:20:14;98117.16;;;-145.95;100.00
37648;BME280;23490;53.656;10.076;2023-07-13T06:22:40;98170.84;;;-145.95;100.00
37648;BME280;23490;53.656;10.076;2023-07-13T06:25:06;98075.88;;;-145.95;100.00
37648;BME280;23490;53.656;10.076;2023-07-13T06:27:31;98075.88;;;-145.95;100.00
37648;BME280;23490;53.656;10.076;2023-07-13T06:29:57;98141.94;;;-145.95;100.00
37648;BME280;23490;53.656;10.076;2023-07-13T06:32:22;98104.78;;;-145.95;100.00
37648;BME280;23490;53.656;10.076;2023-07-13T06:34:47;98098.59;;;-145.95;100.00
37648;BME280;23490;53.656;10.076;2023-07-13T06:37:13;98063.50;;;-145.95;100.00
37648;BME280;23490;53.656;10.076;2023-07-13T06:39:38;98080.00;;;-145.95;100.00
37648;BME280;23490;53.656;10.076;2023-07-13T06:42:03;98086.19;;;-145.95;100.00
37648;BME280;23490;53.656;10.076;2023-07-13T06:44:29;98094.47;;;-145.95;100.00
37648;BME280;23490;53.656;10.076;2023-07-13T06:46:55;97997.44;;;-145.95;100.00
37648;BME280;23490;53.656;10.076;2023-07-13T06:49:20;98092.41;;;-145.95;100.00
37648;BME280;23490;53.656;10.076;2023-07-13T06:51:45;98018.06;;;-145.95;98.28
37648;BME280;23490;53.656;10.076;2023-07-13T06:54:10;98016.00;;;-145.95;99.55
37648;BME280;23490;53.656;10.076;2023-07-13T06:56:36;98026.34;;;-145.95;99.68
37648;BME280;23490;53.656;10.076;2023-07-13T06:59:01;98067.63;;;-145.95;97.75
37648;BME280;23490;53.656;10.076;2023-07-13T07:01:26;97985.03;;;-145.95;95.84
37648;BME280;23490;53.656;10.076;2023-07-13T07:03:52;98013.94;;;-145.95;95.96
37648;BME280;23490;53.656;10.076;2023-07-13T07:06:20;98018.06;;;-145.95;96.59
37648;BME280;23490;53.656;10.076;2023-07-13T07:08:49;97962.34;;;-145.95;97.66
37648;BME280;23490;53.656;10.076;2023-07-13T07:11:17;97980.91;;;-145.95;96.49
37648;BME280;23490;53.656;10.076;2023-07-13T07:13:43;97960.28;;;-145.95;97.07
37648;BME280;23490;53.656;10.076;2023-07-13T07:16:08;97978.84;;;-145.95;95.30
37648;BME280;23490;53.656;10.076;2023-07-13T07:18:34;97902.47;;;-145.95;95.18
37648;BME280;23490;53.656;10.076;2023-07-13T07:21:00;97945.81;;;-145.95;94.95
37648;BME280;23490;53.656;10.076;2023-07-13T07:23:25;97906.59;;;-145.95;94.91
37648;BME280;23490;53.656;10.076;2023-07-13T07:25:50;97972.66;;;-145.95;94.06
37648;BME280;23490;53.656;10.076;2023-07-13T07:28:17;97906.59;;;-145.95;93.93
37648;BME280;23490;53.656;10.076;2023-07-13T07:30:46;97885.97;;;-145.95;93.48
37648;BME280;23490;53.656;10.076;2023-07-13T07:33:12;97894.22;;;-145.95;91.34
37648;BME280;23490;53.656;10.076;2023-07-13T07:35:37;97795.13;;;-145.95;92.02
37648;BME280;23490;53.656;10.076;2023-07-13T07:38:03;97809.59;;;-145.95;90.92
37648;BME280;23490;53.656;10.076;2023-07-13T07:40:28;97799.25;;;-145.95;91.33
37648;BME280;23490;53.656;10.076;2023-07-13T07:42:54;97708.44;;;-145.95;91.19
37648;BME280;23490;53.656;10.076;2023-07-13T07:45:20;97708.44;;;-145.95;88.56
37648;BME280;23490;53.656;10.076;2023-07-13T07:47:45;97687.78;;;-145.95;86.18
37648;BME280;23490;53.656;10.076;2023-07-13T07:50:11;97778.63;;;-145.95;85.62
37648;BME280;23490;53.656;10.076;2023-07-13T07:52:36;97749.72;;;-145.95;87.00
37648;BME280;23490;53.656;10.076;2023-07-13T07:55:06;97741.47;;;-145.95;89.48
37648;BME280;23490;53.656;10.076;2023-07-13T07:57:32;97687.78;;;-145.95;87.29
37648;BME280;23490;53.656;10.076;2023-07-13T07:59:58;97685.72;;;-145.95;88.22
37648;BME280;23490;53.656;10.076;2023-07-13T08:02:24;97576.31;;;-145.95;85.39
37648;BME280;23490;53.656;10.076;2023-07-13T08:04:50;97683.66;;;-145.95;85.07
37648;BME280;23490;53.656;10.076;2023-07-13T08:07:15;97584.59;;;-145.95;84.18
37648;BME280;23490;53.656;10.076;2023-07-13T08:09:41;97605.22;;;-145.95;83.09
37648;BME280;23490;53.656;10.076;2023-07-13T08:12:06;97605.22;;;-145.95;81.44
37648;BME280;23490;53.656;10.076;2023-07-13T08:14:32;97644.44;;;-145.95;82.92
37648;BME280;23490;53.656;10.076;2023-07-13T08:16:58;97634.13;;;-145.95;82.15
37648;BME280;23490;53.656;10.076;2023-07-13T08:19:23;97566.00;;;-145.95;80.20
37648;BME280;23490;53.656;10.076;2023-07-13T08:21:48;97512.34;;;-145.95;80.68
37648;BME280;23490;53.656;10.076;2023-07-13T08:24:14;97504.09;;;-145.95;78.07
37648;BME280;23490;53.656;10.076;2023-07-13T08:26:40;97510.28;;;-145.95;77.59
37648;BME280;23490;53.656;10.076;2023-07-13T08:29:05;97452.47;;;-145.95;75.35
37648;BME280;23490;53.656;10.076;2023-07-13T08:31:31;97522.66;;;-145.95;76.13
37648;BME280;23490;53.656;10.076;2023-07-13T08:33:56;97518.53;;;-145.95;78.72
37648;BME280;23490;53.656;10.076;2023-07-13T08:36:21;97462.81;;;-145.95;78.65
37648;BME280;23490;53.656;10.076;2023-07-13T08:38:47;97485.50;;;-145.95;75.78
37648;BME280;23490;53.656;10.076;2023-07-13T08:41:15;97504.09;;;-145.95;79.07
37648;BME280;23490;53.656;10.076;2023-07-13T08:43:42;97522.66;;;-145.95;78.25
37648;BME280;23490;53.656;10.076;2023-07-13T08:46:38;97499.97;;;-145.95;77.89
37648;BME280;23490;53.656;10.076;2023-07-13T08:49:10;97514.41;;;-145.95;76.52
37648;BME280;23490;53.656;10.076;2023-07-13T08:54:12;97345.16;;;-145.95;72.70
37648;BME280;23490;53.656;10.076;2023-07-13T08:56:44;97270.84;;;-145.95;70.21
37648;BME280;23490;53.656;10.076;2023-07-13T08:59:20;97223.38;;;-145.95;69.75
37648;BME280;23490;53.656;10.076;2023-07-13T09:04:37;97052.09;;;-145.95;64.04
37648;BME280;23490;53.656;10.076;2023-07-13T09:07:14;96932.38;;;-145.95;63.91
37648;BME280;23490;53.656;10.076;2023-07-13T09:09:55;96882.84;;;-145.95;62.24
37648;BME280;23490;53.656;10.076;2023-07-13T09:12:35;96756.97;;;-145.95;57.45
37648;BME280;23490;53.656;10.076;2023-07-13T09:15:20;96946.84;;;-145.95;60.80
37648;BME280;23490;53.656;10.076;2023-07-13T09:17:49;97254.34;;;-145.95;62.99
37648;BME280;23490;53.656;10.076;2023-07-13T09:22:47;97080.97;;;-145.95;64.54
37648;BME280;23490;53.656;10.076;2023-07-13T09:25:30;96878.72;;;-145.95;61.15
37648;BME280;23490;53.656;10.076;2023-07-13T09:28:00;96763.16;;;-145.95;59.87
37648;BME280;23490;53.656;10.076;2023-07-13T09:30:40;96678.56;;;-145.95;58.62
37648;BME280;23490;53.656;10.076;2023-07-13T09:33:09;96618.72;;;-145.95;55.53
37648;BME280;23490;53.656;10.076;2023-07-13T09:35:34;96482.53;;;-145.95;57.51
37648;BME280;23490;53.656;10.076;2023-07-13T09:38:21;96707.44;;;-145.95;54.43
37648;BME280;23490;53.656;10.076;2023-07-13T09:41:02;96740.47;;;-145.95;53.50
37648;BME280;23490;53.656;10.076;2023-07-13T09:43:29;96777.59;;;-145.95;57.39
37648;BME280;23490;53.656;10.076;2023-07-13T09:45:55;96626.97;;;-145.95;57.31
37648;BME280;23490;53.656;10.076;2023-07-13T09:48:21;96767.28;;;-145.95;55.52
37648;BME280;23490;53.656;10.076;2023-07-13T09:50:47;96837.44;;;-145.95;55.46
37648;BME280;23490;53.656;10.076;2023-07-13T09:53:19;96808.56;;;-145.95;54.43
37648;BME280;23490;53.656;10.076;2023-07-13T09:55:48;96866.34;;;-145.95;56.31
37648;BME280;23490;53.656;10.076;2023-07-13T09:58:19;96895.25;;;-145.95;54.48
37648;BME280;23490;53.656;10.076;2023-07-13T10:01:00;96874.59;;;-145.95;56.04
37648;BME280;23490;53.656;10.076;2023-07-13T10:03:29;96740.47;;;-145.95;57.66
37648;BME280;23490;53.656;10.076;2023-07-13T10:06:03;96643.47;;;-145.95;53.10
37648;BME280;23490;53.656;10.076;2023-07-13T10:08:35;96858.09;;;-145.95;54.05
37648;BME280;23490;53.656;10.076;2023-07-13T10:11:08;96647.59;;;-145.95;52.84
37648;BME280;23490;53.656;10.076;2023-07-13T10:13:42;96858.09;;;-145.95;54.25
37648;BME280;23490;53.656;10.076;2023-07-13T10:16:08;96990.16;;;-145.95;54.73
37648;BME280;23490;53.656;10.076;2023-07-13T10:18:46;97109.88;;;-145.95;57.01
37648;BME280;23490;53.656;10.076;2023-07-13T10:21:16;97167.66;;;-145.95;56.97
37648;BME280;23490;53.656;10.076;2023-07-13T10:23:45;97144.94;;;-145.95;58.60
37648;BME280;23490;53.656;10.076;2023-07-13T10:26:17;97188.28;;;-145.95;58.14
37648;BME280;23490;53.656;10.076;2023-07-13T10:28:45;96977.78;;;-145.95;56.76
37648;BME280;23490;53.656;10.076;2023-07-13T10:31:13;96948.91;;;-145.95;56.58
37648;BME280;23490;53.656;10.076;2023-07-13T10:33:39;97010.81;;;-145.95;57.30
37648;BME280;23490;53.656;10.076;2023-07-13T10:36:23;96922.06;;;-145.95;55.14
37648;BME280;23490;53.656;10.076;2023-07-13T10:38:55;97043.81;;;-145.95;53.67
37648;BME280;23490;53.656;10.076;2023-07-13T10:41:24;96684.75;;;-145.95;52.50
37648;BME280;23490;53.656;10.076;2023-07-13T10:43:52;96544.41;;;-145.95;49.61
37648;BME280;23490;53.656;10.076;2023-07-13T10:46:21;96170.94;;;-145.95;50.44
37648;BME280;23490;53.656;10.076;2023-07-13T10:48:51;96123.50;;;-145.95;45.94
37648;BME280;23490;53.656;10.076;2023-07-13T10:51:18;96121.44;;;-145.95;44.01
37648;BME280;23490;53.656;10.076;2023-07-13T10:53:46;96117.31;;;-145.95;43.93
37648;BME280;23490;53.656;10.076;2023-07-13T10:56:29;96049.22;;;-145.95;43.61
37648;BME280;23490;53.656;10.076;2023-07-13T11:01:46;96536.16;;;-145.95;47.04
37648;BME280;23490;53.656;10.076;2023-07-13T11:04:18;96622.84;;;-145.95;48.29
37648;BME280;23490;53.656;10.076;2023-07-13T11:06:47;96631.09;;;-145.95;47.94
37648;BME280;23490;53.656;10.076;2023-07-13T11:09:39;96461.88;;;-145.95;49.71
37648;BME280;23490;53.656;10.076;2023-07-13T11:15:01;96690.94;;;-145.95;48.40
37648;BME280;23490;53.656;10.076;2023-07-13T11:22:43;96593.94;;;-145.95;47.15
37648;BME280;23490;53.656;10.076;2023-07-13T11:25:27;96684.75;;;-145.95;48.30
37648;BME280;23490;53.656;10.076;2023-07-13T11:33:22;96816.81;;;-145.95;48.92
37648;BME280;23490;53.656;10.076;2023-07-13T11:38:27;96707.44;;;-145.95;48.93
37648;BME280;23490;53.656;10.076;2023-07-13T11:40:55;96891.09;;;-145.95;51.81
37648;BME280;23490;53.656;10.076;2023-07-13T11:43:21;96973.66;;;-145.95;53.45
37648;BME280;23490;53.656;10.076;2023-07-13T11:45:51;96839.53;;;-145.95;53.02
37648;BME280;23490;53.656;10.076;2023-07-13T11:48:27;96882.84;;;-145.95;52.64
37648;BME280;23490;53.656;10.076;2023-07-13T11:51:03;96891.09;;;-145.95;53.60
37648;BME280;23490;53.656;10.076;2023-07-13T11:53:38;96519.66;;;-145.95;52.07
37648;BME280;23490;53.656;10.076;2023-07-13T11:56:05;96263.81;;;-145.95;47.67
37648;BME280;23490;53.656;10.076;2023-07-13T11:58:31;96358.72;;;-145.95;45.07
37648;BME280;23490;53.656;10.076;2023-07-13T12:00:59;96511.41;;;-145.95;45.77
37648;BME280;23490;53.656;10.076;2023-07-13T12:03:27;96519.66;;;-145.95;47.63
37648;BME280;23490;53.656;10.076;2023-07-13T12:06:35;96569.19;;;-145.95;47.46
37648;BME280;23490;53.656;10.076;2023-07-13T12:09:12;96688.88;;;-145.95;49.51
37648;BME280;23490;53.656;10.076;2023-07-13T12:11:40;96734.28;;;-145.95;50.53
37648;BME280;23490;53.656;10.076;2023-07-13T12:14:05;96942.69;;;-145.95;52.14
37648;BME280;23490;53.656;10.076;2023-07-13T12:16:32;97006.69;;;-145.95;54.40
37648;BME280;23490;53.656;10.076;2023-07-13T12:19:02;97103.69;;;-145.95;56.66
37648;BME280;23490;53.656;10.076;2023-07-13T12:21:33;97262.59;;;-145.95;59.45
37648;BME280;23490;53.656;10.076;2023-07-13T12:24:00;97349.28;;;-145.95;61.69
37648;BME280;23490;53.656;10.076;2023-07-13T12:26:29;97658.91;;;-145.95;73.88
37648;BME280;23490;53.656;10.076;2023-07-13T12:28:56;97729.06;;;-145.95;84.77
37648;BME280;23490;53.656;10.076;2023-07-13T12:33:58;97840.53;;;-145.95;97.01
37648;BME280;23490;53.656;10.076;2023-07-13T12:36:24;97923.13;;;-145.95;95.38
37648;BME280;23490;53.656;10.076;2023-07-13T12:38:50;97906.59;;;-145.95;97.19
37648;BME280;23490;53.656;10.076;2023-07-13T12:41:16;97869.44;;;-145.95;99.93
37648;BME280;23490;53.656;10.076;2023-07-13T12:43:42;97919.00;;;-145.95;96.24
37648;BME280;23490;53.656;10.076;2023-07-13T12:46:23;97815.78;;;-145.95;96.49
37648;BME280;23490;53.656;10.076;2023-07-13T12:48:52;97828.16;;;-145.95;96.92
37648;BME280;23490;53.656;10.076;2023-07-13T12:51:21;97772.44;;;-145.95;98.67
37648;BME280;23490;53.656;10.076;2023-07-13T12:53:50;97733.22;;;-145.95;96.69
37648;BME280;23490;53.656;10.076;2023-07-13T12:56:21;97698.13;;;-145.95;94.00
37648;BME280;23490;53.656;10.076;2023-07-13T12:58:48;97580.47;;;-145.95;95.58